sensor_id;sensor_type;location;lat;lon;timestamp;P1;durP1;ratioP1;P2;durP2;ratioP2
46815;SDS011;32787;53.316;8.670;2024-01-06T00:01:48;17.63;;;9.77;;
46815;SDS011;32787;53.316;8.670;2024-01-06T00:04:14;18.88;;;10.45;;
46815;SDS011;32787;53.316;8.670;2024-01-06T00:06:39;17.55;;;9.68;;
46815;SDS011;32787;53.316;8.670;2024-01-06T00:09:05;17.40;;;10.55;;
46815;SDS011;32787;53.316;8.670;2024-01-06T00:11:31;16.75;;;10.20;;
46815;SDS011;32787;53.316;8.670;2024-01-06T00:13:56;19.17;;;10.60;;
46815;SDS011;32787;53.316;8.670;2024-01-06T00:16:22;20.48;;;10.73;;
46815;SDS011;32787;53.316;8.670;2024-01-06T00:18:48;20.50;;;10.75;;
46815;SDS011;32787;53.316;8.670;2024-01-06T00:21:14;19.67;;;10.07;;
46815;SDS011;32787;53.316;8.670;2024-01-06T00:23:40;19.63;;;11.30;;
46815;SDS011;32787;53.316;8.670;2024-01-06T00:26:06;17.63;;;11.02;;
46815;SDS011;32787;53.316;8.670;2024-01-06T00:28:32;19.95;;;11.73;;
46815;SDS011;32787;53.316;8.670;2024-01-06T00:30:58;20.73;;;10.55;;
46815;SDS011;32787;53.316;8.670;2024-01-06T00:33:23;17.75;;;10.57;;
46815;SDS011;32787;53.316;8.670;2024-01-06T00:35:49;17.58;;;10.13;;
46815;SDS011;32787;53.316;8.670;2024-01-06T00:38:14;19.05;;;10.38;;
46815;SDS011;32787;53.316;8.670;2024-01-06T00:40:40;19.30;;;9.45;;
46815;SDS011;32787;53.316;8.670;2024-01-06T00:43:06;19.67;;;11.18;;
46815;SDS011;32787;53.316;8.670;2024-01-06T00:45:31;19.63;;;10.82;;
46815;SDS011;32787;53.316;8.670;2024-01-06T00:47:57;18.00;;;9.85;;
46815;SDS011;32787;53.316;8.670;2024-01-06T00:50:23;18.83;;;9.95;;
46815;SDS011;32787;53.316;8.670;2024-01-06T00:52:48;13.27;;;7.65;;
46815;SDS011;32787;53.316;8.670;2024-01-06T00:55:17;16.50;;;9.02;;
46815;SDS011;32787;53.316;8.670;2024-01-06T00:57:44;17.63;;;9.60;;
46815;SDS011;32787;53.316;8.670;2024-01-06T01:00:09;17.30;;;10.30;;
46815;SDS011;32787;53.316;8.670;2024-01-06T01:02:36;16.58;;;8.45;;
46815;SDS011;32787;53.316;8.670;2024-01-06T01:05:01;15.00;;;8.45;;
46815;SDS011;32787;53.316;8.670;2024-01-06T01:07:27;15.35;;;8.48;;
46815;SDS011;32787;53.316;8.670;2024-01-06T01:09:53;14.48;;;7.68;;
46815;SDS011;32787;53.316;8.670;2024-01-06T01:12:18;15.38;;;8.10;;
46815;SDS011;32787;53.316;8.670;2024-01-06T01:14:44;14.40;;;7.45;;
46815;SDS011;32787;53.316;8.670;2024-01-06T01:17:10;14.98;;;7.78;;
46815;SDS011;32787;53.316;8.670;2024-01-06T01:19:35;12.90;;;7.45;;
46815;SDS011;32787;53.316;8.670;2024-01-06T01:22:01;14.10;;;7.72;;
46815;SDS011;32787;53.316;8.670;2024-01-06T01:24:27;13.80;;;7.68;;
46815;SDS011;32787;53.316;8.670;2024-01-06T01:26:52;14.43;;;7.40;;
46815;SDS011;32787;53.316;8.670;2024-01-06T01:29:18;13.52;;;7.65;;
46815;SDS011;32787;53.316;8.670;2024-01-06T01:31:45;12.30;;;7.38;;
46815;SDS011;32787;53.316;8.670;2024-01-06T01:34:12;14.65;;;7.75;;
46815;SDS011;32787;53.316;8.670;2024-01-06T01:36:37;13.13;;;7.20;;
46815;SDS011;32787;53.316;8.670;2024-01-06T01:39:03;13.30;;;7.45;;
46815;SDS011;32787;53.316;8.670;2024-01-06T01:41:29;14.07;;;7.40;;
46815;SDS011;32787;53.316;8.670;2024-01-06T01:43:54;13.02;;;7.07;;
46815;SDS011;32787;53.316;8.670;2024-01-06T01:46:26;12.82;;;7.35;;
46815;SDS011;32787;53.316;8.670;2024-01-06T01:48:53;14.77;;;7.72;;
46815;SDS011;32787;53.316;8.670;2024-01-06T01:51:20;12.13;;;7.05;;
46815;SDS011;32787;53.316;8.670;2024-01-06T01:53:46;12.70;;;7.45;;
46815;SDS011;32787;53.316;8.670;2024-01-06T01:56:12;13.35;;;7.78;;
46815;SDS011;32787;53.316;8.670;2024-01-06T01:58:39;15.80;;;8.82;;
46815;SDS011;32787;53.316;8.670;2024-01-06T02:01:06;16.35;;;8.75;;
46815;SDS011;32787;53.316;8.670;2024-01-06T02:03:32;13.80;;;8.52;;
46815;SDS011;32787;53.316;8.670;2024-01-06T02:05:58;14.18;;;8.18;;
46815;SDS011;32787;53.316;8.670;2024-01-06T02:08:24;14.65;;;8.80;;
46815;SDS011;32787;53.316;8.670;2024-01-06T02:10:50;14.30;;;8.25;;
46815;SDS011;32787;53.316;8.670;2024-01-06T02:13:15;15.60;;;7.95;;
46815;SDS011;32787;53.316;8.670;2024-01-06T02:15:41;14.27;;;7.82;;
46815;SDS011;32787;53.316;8.670;2024-01-06T02:18:07;13.75;;;8.38;;
46815;SDS011;32787;53.316;8.670;2024-01-06T02:20:32;15.85;;;8.00;;
46815;SDS011;32787;53.316;8.670;2024-01-06T02:22:58;15.82;;;8.60;;
46815;SDS011;32787;53.316;8.670;2024-01-06T02:25:25;14.95;;;8.55;;
46815;SDS011;32787;53.316;8.670;2024-01-06T02:27:51;13.60;;;8.50;;
46815;SDS011;32787;53.316;8.670;2024-01-06T02:30:17;15.63;;;8.70;;
46815;SDS011;32787;53.316;8.670;2024-01-06T02:32:43;14.68;;;8.27;;
46815;SDS011;32787;53.316;8.670;2024-01-06T02:35:08;15.32;;;8.52;;
46815;SDS011;32787;53.316;8.670;2024-01-06T02:37:34;14.57;;;8.10;;
46815;SDS011;32787;53.316;8.670;2024-01-06T02:39:59;16.08;;;8.50;;
46815;SDS011;32787;53.316;8.670;2024-01-06T02:42:25;13.85;;;7.97;;
46815;SDS011;32787;53.316;8.670;2024-01-06T02:44:51;16.65;;;8.48;;
46815;SDS011;32787;53.316;8.670;2024-01-06T02:47:16;16.35;;;8.18;;
46815;SDS011;32787;53.316;8.670;2024-01-06T02:49:42;14.52;;;7.95;;
46815;SDS011;32787;53.316;8.670;2024-01-06T02:52:08;16.45;;;8.02;;
46815;SDS011;32787;53.316;8.670;2024-01-06T02:54:34;14.55;;;7.90;;
46815;SDS011;32787;53.316;8.670;2024-01-06T02:56:59;12.32;;;7.28;;
46815;SDS011;32787;53.316;8.670;2024-01-06T02:59:25;15.65;;;7.65;;
46815;SDS011;32787;53.316;8.670;2024-01-06T03:01:51;14.93;;;8.18;;
46815;SDS011;32787;53.316;8.670;2024-01-06T03:04:16;16.20;;;8.20;;
46815;SDS011;32787;53.316;8.670;2024-01-06T03:06:42;14.82;;;8.15;;
46815;SDS011;32787;53.316;8.670;2024-01-06T03:09:08;16.30;;;8.23;;
46815;SDS011;32787;53.316;8.670;2024-01-06T03:11:33;14.55;;;7.78;;
46815;SDS011;32787;53.316;8.670;2024-01-06T03:13:59;14.68;;;8.00;;
46815;SDS011;32787;53.316;8.670;2024-01-06T03:16:25;12.43;;;7.22;;
46815;SDS011;32787;53.316;8.670;2024-01-06T03:18:50;13.07;;;7.03;;
46815;SDS011;32787;53.316;8.670;2024-01-06T03:21:19;13.80;;;7.15;;
46815;SDS011;32787;53.316;8.670;2024-01-06T03:23:45;14.13;;;7.78;;
46815;SDS011;32787;53.316;8.670;2024-01-06T03:26:11;13.82;;;7.63;;
46815;SDS011;32787;53.316;8.670;2024-01-06T03:28:37;12.73;;;6.95;;
46815;SDS011;32787;53.316;8.670;2024-01-06T03:31:03;13.45;;;7.60;;
46815;SDS011;32787;53.316;8.670;2024-01-06T03:33:28;13.80;;;7.07;;
46815;SDS011;32787;53.316;8.670;2024-01-06T03:35:54;13.50;;;7.15;;
46815;SDS011;32787;53.316;8.670;2024-01-06T03:38:20;13.52;;;7.80;;
46815;SDS011;32787;53.316;8.670;2024-01-06T03:40:45;14.43;;;7.47;;
46815;SDS011;32787;53.316;8.670;2024-01-06T03:43:11;14.10;;;7.00;;
46815;SDS011;32787;53.316;8.670;2024-01-06T03:45:36;14.05;;;7.65;;
46815;SDS011;32787;53.316;8.670;2024-01-06T03:48:02;13.82;;;7.70;;
46815;SDS011;32787;53.316;8.670;2024-01-06T03:50:28;12.98;;;7.57;;
46815;SDS011;32787;53.316;8.670;2024-01-06T03:52:54;13.40;;;7.25;;
46815;SDS011;32787;53.316;8.670;2024-01-06T03:55:19;13.65;;;7.75;;
46815;SDS011;32787;53.316;8.670;2024-01-06T03:57:45;13.68;;;7.47;;
46815;SDS011;32787;53.316;8.670;2024-01-06T04:00:11;14.30;;;7.43;;
46815;SDS011;32787;53.316;8.670;2024-01-06T04:02:36;14.20;;;7.15;;
46815;SDS011;32787;53.316;8.670;2024-01-06T04:05:02;12.88;;;6.95;;
46815;SDS011;32787;53.316;8.670;2024-01-06T04:07:30;13.07;;;7.60;;
46815;SDS011;32787;53.316;8.670;2024-01-06T04:09:55;15.15;;;8.25;;
46815;SDS011;32787;53.316;8.670;2024-01-06T04:12:21;13.77;;;7.68;;
46815;SDS011;32787;53.316;8.670;2024-01-06T04:14:47;15.27;;;8.40;;
46815;SDS011;32787;53.316;8.670;2024-01-06T04:17:12;14.32;;;7.88;;
46815;SDS011;32787;53.316;8.670;2024-01-06T04:19:38;17.45;;;8.27;;
46815;SDS011;32787;53.316;8.670;2024-01-06T04:22:04;13.65;;;8.07;;
46815;SDS011;32787;53.316;8.670;2024-01-06T04:24:29;13.88;;;7.88;;
46815;SDS011;32787;53.316;8.670;2024-01-06T04:26:55;14.07;;;8.07;;
46815;SDS011;32787;53.316;8.670;2024-01-06T04:29:21;13.95;;;8.27;;
46815;SDS011;32787;53.316;8.670;2024-01-06T04:31:46;13.77;;;7.57;;
46815;SDS011;32787;53.316;8.670;2024-01-06T04:34:12;14.75;;;7.88;;
46815;SDS011;32787;53.316;8.670;2024-01-06T04:36:37;15.18;;;8.38;;
46815;SDS011;32787;53.316;8.670;2024-01-06T04:39:03;14.52;;;7.63;;
46815;SDS011;32787;53.316;8.670;2024-01-06T04:41:29;15.27;;;8.18;;
46815;SDS011;32787;53.316;8.670;2024-01-06T04:43:54;15.00;;;8.23;;
46815;SDS011;32787;53.316;8.670;2024-01-06T04:46:20;15.50;;;8.38;;
46815;SDS011;32787;53.316;8.670;2024-01-06T04:48:46;16.67;;;9.43;;
46815;SDS011;32787;53.316;8.670;2024-01-06T04:51:12;15.73;;;9.10;;
46815;SDS011;32787;53.316;8.670;2024-01-06T04:53:38;14.57;;;8.30;;
46815;SDS011;32787;53.316;8.670;2024-01-06T04:56:05;15.43;;;9.10;;
46815;SDS011;32787;53.316;8.670;2024-01-06T04:58:30;19.05;;;9.73;;
46815;SDS011;32787;53.316;8.670;2024-01-06T05:00:56;15.98;;;8.80;;
46815;SDS011;32787;53.316;8.670;2024-01-06T05:03:22;14.00;;;8.20;;
46815;SDS011;32787;53.316;8.670;2024-01-06T05:05:48;17.38;;;9.63;;
46815;SDS011;32787;53.316;8.670;2024-01-06T05:08:13;16.75;;;9.52;;
46815;SDS011;32787;53.316;8.670;2024-01-06T05:10:39;15.50;;;8.55;;
46815;SDS011;32787;53.316;8.670;2024-01-06T05:13:05;16.77;;;8.93;;
46815;SDS011;32787;53.316;8.670;2024-01-06T05:15:30;14.95;;;8.95;;
46815;SDS011;32787;53.316;8.670;2024-01-06T05:17:56;16.73;;;9.35;;
46815;SDS011;32787;53.316;8.670;2024-01-06T05:20:22;16.17;;;8.57;;
46815;SDS011;32787;53.316;8.670;2024-01-06T05:22:48;16.63;;;9.27;;
46815;SDS011;32787;53.316;8.670;2024-01-06T05:25:13;16.65;;;8.80;;
46815;SDS011;32787;53.316;8.670;2024-01-06T05:27:39;17.67;;;9.63;;
46815;SDS011;32787;53.316;8.670;2024-01-06T05:30:05;15.90;;;9.00;;
46815;SDS011;32787;53.316;8.670;2024-01-06T05:32:31;15.25;;;8.98;;
46815;SDS011;32787;53.316;8.670;2024-01-06T05:34:57;17.20;;;9.75;;
46815;SDS011;32787;53.316;8.670;2024-01-06T05:37:22;15.05;;;9.10;;
46815;SDS011;32787;53.316;8.670;2024-01-06T05:39:48;15.48;;;9.15;;
46815;SDS011;32787;53.316;8.670;2024-01-06T05:42:13;16.55;;;8.90;;
46815;SDS011;32787;53.316;8.670;2024-01-06T05:44:42;17.55;;;10.07;;
46815;SDS011;32787;53.316;8.670;2024-01-06T05:47:08;16.90;;;9.43;;
46815;SDS011;32787;53.316;8.670;2024-01-06T05:49:34;17.02;;;10.05;;
46815;SDS011;32787;53.316;8.670;2024-01-06T05:52:00;16.65;;;9.95;;
46815;SDS011;32787;53.316;8.670;2024-01-06T05:54:25;15.45;;;9.68;;
46815;SDS011;32787;53.316;8.670;2024-01-06T05:56:51;18.90;;;10.73;;
46815;SDS011;32787;53.316;8.670;2024-01-06T05:59:17;18.65;;;9.88;;
46815;SDS011;32787;53.316;8.670;2024-01-06T06:01:43;17.65;;;10.50;;
46815;SDS011;32787;53.316;8.670;2024-01-06T06:04:09;18.20;;;10.25;;
46815;SDS011;32787;53.316;8.670;2024-01-06T06:06:37;17.70;;;10.45;;
46815;SDS011;32787;53.316;8.670;2024-01-06T06:09:03;25.17;;;10.15;;
46815;SDS011;32787;53.316;8.670;2024-01-06T06:11:32;18.75;;;10.73;;
46815;SDS011;32787;53.316;8.670;2024-01-06T06:13:58;18.33;;;11.25;;
46815;SDS011;32787;53.316;8.670;2024-01-06T06:16:24;18.80;;;10.00;;
46815;SDS011;32787;53.316;8.670;2024-01-06T06:18:49;18.02;;;10.95;;
46815;SDS011;32787;53.316;8.670;2024-01-06T06:21:15;19.38;;;10.50;;
46815;SDS011;32787;53.316;8.670;2024-01-06T06:23:41;17.95;;;10.57;;
46815;SDS011;32787;53.316;8.670;2024-01-06T06:26:07;19.50;;;11.05;;
46815;SDS011;32787;53.316;8.670;2024-01-06T06:28:34;21.83;;;11.45;;
46815;SDS011;32787;53.316;8.670;2024-01-06T06:31:00;20.65;;;11.93;;
46815;SDS011;32787;53.316;8.670;2024-01-06T06:33:26;18.42;;;11.52;;
46815;SDS011;32787;53.316;8.670;2024-01-06T06:35:52;20.10;;;11.05;;
46815;SDS011;32787;53.316;8.670;2024-01-06T06:38:18;20.45;;;11.20;;
46815;SDS011;32787;53.316;8.670;2024-01-06T06:40:43;19.45;;;10.60;;
46815;SDS011;32787;53.316;8.670;2024-01-06T06:43:09;22.33;;;11.35;;
46815;SDS011;32787;53.316;8.670;2024-01-06T06:45:35;20.75;;;11.52;;
46815;SDS011;32787;53.316;8.670;2024-01-06T06:48:00;20.83;;;11.80;;
46815;SDS011;32787;53.316;8.670;2024-01-06T06:50:26;21.92;;;11.60;;
46815;SDS011;32787;53.316;8.670;2024-01-06T06:52:51;22.48;;;11.95;;
46815;SDS011;32787;53.316;8.670;2024-01-06T06:55:17;20.77;;;11.20;;
46815;SDS011;32787;53.316;8.670;2024-01-06T06:57:43;20.55;;;11.48;;
46815;SDS011;32787;53.316;8.670;2024-01-06T07:00:09;20.38;;;11.55;;
46815;SDS011;32787;53.316;8.670;2024-01-06T07:02:35;20.98;;;11.57;;
46815;SDS011;32787;53.316;8.670;2024-01-06T07:05:01;23.35;;;12.38;;
46815;SDS011;32787;53.316;8.670;2024-01-06T07:07:26;21.50;;;12.32;;
46815;SDS011;32787;53.316;8.670;2024-01-06T07:09:52;19.83;;;10.90;;
46815;SDS011;32787;53.316;8.670;2024-01-06T07:12:18;21.70;;;13.05;;
46815;SDS011;32787;53.316;8.670;2024-01-06T07:14:44;21.13;;;12.75;;
46815;SDS011;32787;53.316;8.670;2024-01-06T07:17:09;21.83;;;12.90;;
46815;SDS011;32787;53.316;8.670;2024-01-06T07:19:35;23.83;;;12.98;;
46815;SDS011;32787;53.316;8.670;2024-01-06T07:22:01;24.63;;;13.55;;
46815;SDS011;32787;53.316;8.670;2024-01-06T07:24:26;24.55;;;13.25;;
46815;SDS011;32787;53.316;8.670;2024-01-06T07:26:52;22.60;;;12.55;;
46815;SDS011;32787;53.316;8.670;2024-01-06T07:29:18;22.13;;;12.05;;
46815;SDS011;32787;53.316;8.670;2024-01-06T07:31:44;23.05;;;12.68;;
46815;SDS011;32787;53.316;8.670;2024-01-06T07:34:09;22.10;;;12.15;;
46815;SDS011;32787;53.316;8.670;2024-01-06T07:36:35;23.73;;;13.20;;
46815;SDS011;32787;53.316;8.670;2024-01-06T07:39:01;23.33;;;12.95;;
46815;SDS011;32787;53.316;8.670;2024-01-06T07:41:28;22.60;;;12.98;;
46815;SDS011;32787;53.316;8.670;2024-01-06T07:43:55;24.95;;;13.30;;
46815;SDS011;32787;53.316;8.670;2024-01-06T07:46:21;25.05;;;14.32;;
46815;SDS011;32787;53.316;8.670;2024-01-06T07:48:47;21.50;;;13.20;;
46815;SDS011;32787;53.316;8.670;2024-01-06T07:51:12;21.45;;;12.43;;
46815;SDS011;32787;53.316;8.670;2024-01-06T07:53:38;25.23;;;14.52;;
46815;SDS011;32787;53.316;8.670;2024-01-06T07:56:04;25.50;;;13.93;;
46815;SDS011;32787;53.316;8.670;2024-01-06T07:58:30;22.83;;;12.45;;
46815;SDS011;32787;53.316;8.670;2024-01-06T08:00:56;23.73;;;13.45;;
46815;SDS011;32787;53.316;8.670;2024-01-06T08:03:22;23.05;;;13.65;;
46815;SDS011;32787;53.316;8.670;2024-01-06T08:05:48;24.55;;;13.35;;
46815;SDS011;32787;53.316;8.670;2024-01-06T08:08:14;24.88;;;12.73;;
46815;SDS011;32787;53.316;8.670;2024-01-06T08:10:42;22.75;;;13.48;;
46815;SDS011;32787;53.316;8.670;2024-01-06T08:13:07;22.80;;;12.15;;
46815;SDS011;32787;53.316;8.670;2024-01-06T08:15:33;24.23;;;13.05;;
46815;SDS011;32787;53.316;8.670;2024-01-06T08:17:59;27.40;;;14.93;;
46815;SDS011;32787;53.316;8.670;2024-01-06T08:20:24;24.30;;;12.70;;
46815;SDS011;32787;53.316;8.670;2024-01-06T08:22:50;25.73;;;14.65;;
46815;SDS011;32787;53.316;8.670;2024-01-06T08:25:16;25.00;;;14.50;;
46815;SDS011;32787;53.316;8.670;2024-01-06T08:27:42;25.00;;;13.85;;
46815;SDS011;32787;53.316;8.670;2024-01-06T08:30:08;23.65;;;14.10;;
46815;SDS011;32787;53.316;8.670;2024-01-06T08:32:35;21.90;;;13.25;;
46815;SDS011;32787;53.316;8.670;2024-01-06T08:35:00;23.63;;;13.90;;
46815;SDS011;32787;53.316;8.670;2024-01-06T08:37:26;25.02;;;13.40;;
46815;SDS011;32787;53.316;8.670;2024-01-06T08:39:52;21.83;;;12.82;;
46815;SDS011;32787;53.316;8.670;2024-01-06T08:42:17;24.58;;;13.48;;
46815;SDS011;32787;53.316;8.670;2024-01-06T08:44:43;39.33;;;16.42;;
46815;SDS011;32787;53.316;8.670;2024-01-06T08:47:09;62.03;;;19.77;;
46815;SDS011;32787;53.316;8.670;2024-01-06T08:49:35;26.00;;;14.38;;
46815;SDS011;32787;53.316;8.670;2024-01-06T08:52:01;21.98;;;12.30;;
46815;SDS011;32787;53.316;8.670;2024-01-06T08:54:27;24.33;;;13.93;;
46815;SDS011;32787;53.316;8.670;2024-01-06T08:56:52;26.23;;;12.82;;
46815;SDS011;32787;53.316;8.670;2024-01-06T08:59:18;24.88;;;14.20;;
46815;SDS011;32787;53.316;8.670;2024-01-06T09:01:45;24.08;;;13.68;;
46815;SDS011;32787;53.316;8.670;2024-01-06T09:04:11;22.70;;;13.25;;
46815;SDS011;32787;53.316;8.670;2024-01-06T09:06:38;23.83;;;14.95;;
46815;SDS011;32787;53.316;8.670;2024-01-06T09:09:03;22.25;;;12.13;;
46815;SDS011;32787;53.316;8.670;2024-01-06T09:11:30;23.58;;;13.02;;
46815;SDS011;32787;53.316;8.670;2024-01-06T09:13:55;23.98;;;13.57;;
46815;SDS011;32787;53.316;8.670;2024-01-06T09:16:21;24.77;;;14.07;;
46815;SDS011;32787;53.316;8.670;2024-01-06T09:18:47;25.05;;;13.82;;
46815;SDS011;32787;53.316;8.670;2024-01-06T09:21:14;22.75;;;13.25;;
46815;SDS011;32787;53.316;8.670;2024-01-06T09:23:40;23.52;;;13.35;;
46815;SDS011;32787;53.316;8.670;2024-01-06T09:26:06;23.52;;;12.85;;
46815;SDS011;32787;53.316;8.670;2024-01-06T09:28:31;23.23;;;13.57;;
46815;SDS011;32787;53.316;8.670;2024-01-06T09:30:57;21.85;;;13.35;;
46815;SDS011;32787;53.316;8.670;2024-01-06T09:33:23;23.83;;;12.95;;
46815;SDS011;32787;53.316;8.670;2024-01-06T09:35:48;23.30;;;12.82;;
46815;SDS011;32787;53.316;8.670;2024-01-06T09:38:15;22.27;;;12.27;;
46815;SDS011;32787;53.316;8.670;2024-01-06T09:40:43;25.17;;;12.75;;
46815;SDS011;32787;53.316;8.670;2024-01-06T09:43:12;23.08;;;12.70;;
46815;SDS011;32787;53.316;8.670;2024-01-06T09:45:38;24.65;;;12.60;;
46815;SDS011;32787;53.316;8.670;2024-01-06T09:48:10;23.52;;;12.82;;
46815;SDS011;32787;53.316;8.670;2024-01-06T09:50:40;22.98;;;12.45;;
46815;SDS011;32787;53.316;8.670;2024-01-06T09:53:08;21.65;;;12.50;;
46815;SDS011;32787;53.316;8.670;2024-01-06T09:55:36;21.60;;;12.18;;
46815;SDS011;32787;53.316;8.670;2024-01-06T09:58:02;22.95;;;11.13;;
46815;SDS011;32787;53.316;8.670;2024-01-06T10:00:29;23.70;;;13.07;;
46815;SDS011;32787;53.316;8.670;2024-01-06T10:02:55;23.98;;;12.95;;
46815;SDS011;32787;53.316;8.670;2024-01-06T10:05:21;23.63;;;13.73;;
46815;SDS011;32787;53.316;8.670;2024-01-06T10:07:47;25.10;;;13.25;;
46815;SDS011;32787;53.316;8.670;2024-01-06T10:10:13;23.50;;;13.13;;
46815;SDS011;32787;53.316;8.670;2024-01-06T10:12:40;22.73;;;12.20;;
46815;SDS011;32787;53.316;8.670;2024-01-06T10:15:07;22.20;;;12.38;;
46815;SDS011;32787;53.316;8.670;2024-01-06T10:17:36;26.67;;;15.57;;
46815;SDS011;32787;53.316;8.670;2024-01-06T10:20:05;23.05;;;13.07;;
46815;SDS011;32787;53.316;8.670;2024-01-06T10:22:38;21.83;;;12.98;;
46815;SDS011;32787;53.316;8.670;2024-01-06T10:25:09;25.27;;;12.35;;
46815;SDS011;32787;53.316;8.670;2024-01-06T10:27:37;25.45;;;13.65;;
46815;SDS011;32787;53.316;8.670;2024-01-06T10:30:05;26.27;;;13.85;;
46815;SDS011;32787;53.316;8.670;2024-01-06T10:32:32;24.85;;;13.35;;
46815;SDS011;32787;53.316;8.670;2024-01-06T10:34:58;22.98;;;13.57;;
46815;SDS011;32787;53.316;8.670;2024-01-06T10:37:26;22.40;;;13.27;;
46815;SDS011;32787;53.316;8.670;2024-01-06T10:42:35;22.23;;;13.05;;
46815;SDS011;32787;53.316;8.670;2024-01-06T10:45:01;23.65;;;13.40;;
46815;SDS011;32787;53.316;8.670;2024-01-06T10:47:28;25.20;;;13.90;;
46815;SDS011;32787;53.316;8.670;2024-01-06T10:49:57;23.50;;;12.73;;
46815;SDS011;32787;53.316;8.670;2024-01-06T10:52:24;25.48;;;14.13;;
46815;SDS011;32787;53.316;8.670;2024-01-06T10:54:53;25.17;;;12.95;;
46815;SDS011;32787;53.316;8.670;2024-01-06T10:57:20;24.17;;;13.57;;
46815;SDS011;32787;53.316;8.670;2024-01-06T10:59:47;22.58;;;13.18;;
46815;SDS011;32787;53.316;8.670;2024-01-06T11:02:15;27.58;;;13.50;;
46815;SDS011;32787;53.316;8.670;2024-01-06T11:04:46;23.98;;;13.02;;
46815;SDS011;32787;53.316;8.670;2024-01-06T11:07:17;24.45;;;13.35;;
46815;SDS011;32787;53.316;8.670;2024-01-06T11:15:51;26.02;;;13.15;;
46815;SDS011;32787;53.316;8.670;2024-01-06T11:18:33;24.73;;;13.60;;
46815;SDS011;32787;53.316;8.670;2024-01-06T11:21:16;24.98;;;14.20;;
46815;SDS011;32787;53.316;8.670;2024-01-06T11:26:51;27.77;;;13.70;;
46815;SDS011;32787;53.316;8.670;2024-01-06T11:29:20;24.75;;;13.55;;
46815;SDS011;32787;53.316;8.670;2024-01-06T11:34:50;26.05;;;13.95;;
46815;SDS011;32787;53.316;8.670;2024-01-06T11:37:18;26.67;;;13.95;;
46815;SDS011;32787;53.316;8.670;2024-01-06T11:40:03;26.80;;;14.57;;
46815;SDS011;32787;53.316;8.670;2024-01-06T11:42:58;25.70;;;14.00;;
46815;SDS011;32787;53.316;8.670;2024-01-06T11:45:34;23.58;;;12.57;;
46815;SDS011;32787;53.316;8.670;2024-01-06T11:48:05;26.80;;;13.98;;
46815;SDS011;32787;53.316;8.670;2024-01-06T11:50:36;25.92;;;14.27;;
46815;SDS011;32787;53.316;8.670;2024-01-06T11:53:03;23.73;;;13.68;;
46815;SDS011;32787;53.316;8.670;2024-01-06T11:55:29;28.05;;;14.57;;
46815;SDS011;32787;53.316;8.670;2024-01-06T11:57:59;26.48;;;14.00;;
46815;SDS011;32787;53.316;8.670;2024-01-06T12:00:28;24.52;;;13.38;;
46815;SDS011;32787;53.316;8.670;2024-01-06T12:02:58;26.80;;;14.40;;
46815;SDS011;32787;53.316;8.670;2024-01-06T12:05:25;23.65;;;13.52;;
46815;SDS011;32787;53.316;8.670;2024-01-06T12:08:02;26.80;;;14.23;;
46815;SDS011;32787;53.316;8.670;2024-01-06T12:10:31;24.55;;;12.75;;
46815;SDS011;32787;53.316;8.670;2024-01-06T12:13:07;26.55;;;13.80;;
46815;SDS011;32787;53.316;8.670;2024-01-06T12:15:36;24.88;;;13.48;;
46815;SDS011;32787;53.316;8.670;2024-01-06T12:18:05;23.37;;;13.53;;
46815;SDS011;32787;53.316;8.670;2024-01-06T12:20:31;23.77;;;12.65;;
46815;SDS011;32787;53.316;8.670;2024-01-06T12:22:57;31.23;;;14.68;;
46815;SDS011;32787;53.316;8.670;2024-01-06T12:25:25;27.45;;;14.00;;
46815;SDS011;32787;53.316;8.670;2024-01-06T12:27:51;25.15;;;14.35;;
46815;SDS011;32787;53.316;8.670;2024-01-06T12:30:19;28.52;;;13.77;;
46815;SDS011;32787;53.316;8.670;2024-01-06T12:32:46;29.42;;;13.55;;
46815;SDS011;32787;53.316;8.670;2024-01-06T12:35:14;27.05;;;14.15;;
46815;SDS011;32787;53.316;8.670;2024-01-06T12:37:43;28.52;;;15.57;;
46815;SDS011;32787;53.316;8.670;2024-01-06T12:40:13;24.77;;;13.38;;
46815;SDS011;32787;53.316;8.670;2024-01-06T12:42:42;28.45;;;14.20;;
46815;SDS011;32787;53.316;8.670;2024-01-06T12:45:08;30.17;;;14.25;;
46815;SDS011;32787;53.316;8.670;2024-01-06T12:47:35;27.77;;;14.02;;
46815;SDS011;32787;53.316;8.670;2024-01-06T12:50:01;24.75;;;14.23;;
46815;SDS011;32787;53.316;8.670;2024-01-06T12:52:27;27.67;;;14.35;;
46815;SDS011;32787;53.316;8.670;2024-01-06T12:54:52;24.45;;;13.88;;
46815;SDS011;32787;53.316;8.670;2024-01-06T12:57:18;24.15;;;14.10;;
46815;SDS011;32787;53.316;8.670;2024-01-06T12:59:44;27.38;;;14.65;;
46815;SDS011;32787;53.316;8.670;2024-01-06T13:02:09;26.33;;;13.77;;
46815;SDS011;32787;53.316;8.670;2024-01-06T13:04:35;26.83;;;14.73;;
46815;SDS011;32787;53.316;8.670;2024-01-06T13:07:01;26.05;;;14.20;;
46815;SDS011;32787;53.316;8.670;2024-01-06T13:09:27;25.40;;;13.57;;
46815;SDS011;32787;53.316;8.670;2024-01-06T13:11:53;25.92;;;13.95;;
46815;SDS011;32787;53.316;8.670;2024-01-06T13:14:20;25.35;;;13.85;;
46815;SDS011;32787;53.316;8.670;2024-01-06T13:16:46;26.65;;;15.02;;
46815;SDS011;32787;53.316;8.670;2024-01-06T13:19:12;26.23;;;14.32;;
46815;SDS011;32787;53.316;8.670;2024-01-06T13:21:38;26.45;;;14.07;;
46815;SDS011;32787;53.316;8.670;2024-01-06T13:24:05;25.83;;;14.43;;
46815;SDS011;32787;53.316;8.670;2024-01-06T13:26:31;28.38;;;14.82;;
46815;SDS011;32787;53.316;8.670;2024-01-06T13:28:57;24.52;;;12.95;;
46815;SDS011;32787;53.316;8.670;2024-01-06T13:31:23;25.33;;;13.27;;
46815;SDS011;32787;53.316;8.670;2024-01-06T13:33:49;25.17;;;13.35;;
46815;SDS011;32787;53.316;8.670;2024-01-06T13:36:17;25.90;;;13.80;;
46815;SDS011;32787;53.316;8.670;2024-01-06T13:38:45;23.27;;;13.50;;
46815;SDS011;32787;53.316;8.670;2024-01-06T13:41:10;24.75;;;13.15;;
46815;SDS011;32787;53.316;8.670;2024-01-06T13:43:36;25.33;;;14.07;;
46815;SDS011;32787;53.316;8.670;2024-01-06T13:46:02;25.65;;;14.40;;
46815;SDS011;32787;53.316;8.670;2024-01-06T13:48:28;29.75;;;14.35;;
46815;SDS011;32787;53.316;8.670;2024-01-06T13:50:53;25.08;;;13.45;;
46815;SDS011;32787;53.316;8.670;2024-01-06T13:53:19;23.80;;;13.50;;
46815;SDS011;32787;53.316;8.670;2024-01-06T13:55:45;24.83;;;12.38;;
46815;SDS011;32787;53.316;8.670;2024-01-06T13:58:10;27.17;;;13.05;;
46815;SDS011;32787;53.316;8.670;2024-01-06T14:00:36;24.50;;;12.52;;
46815;SDS011;32787;53.316;8.670;2024-01-06T14:03:02;23.63;;;12.63;;
46815;SDS011;32787;53.316;8.670;2024-01-06T14:05:29;24.67;;;13.20;;
46815;SDS011;32787;53.316;8.670;2024-01-06T14:07:55;24.52;;;12.63;;
46815;SDS011;32787;53.316;8.670;2024-01-06T14:10:21;27.83;;;12.43;;
46815;SDS011;32787;53.316;8.670;2024-01-06T14:12:47;21.70;;;12.70;;
46815;SDS011;32787;53.316;8.670;2024-01-06T14:15:12;25.33;;;12.95;;
46815;SDS011;32787;53.316;8.670;2024-01-06T14:17:38;21.08;;;11.98;;
46815;SDS011;32787;53.316;8.670;2024-01-06T14:20:05;20.58;;;11.38;;
46815;SDS011;32787;53.316;8.670;2024-01-06T14:22:34;22.30;;;12.18;;
46815;SDS011;32787;53.316;8.670;2024-01-06T14:24:59;21.67;;;11.90;;
46815;SDS011;32787;53.316;8.670;2024-01-06T14:27:25;20.58;;;10.98;;
46815;SDS011;32787;53.316;8.670;2024-01-06T14:29:51;23.70;;;11.18;;
46815;SDS011;32787;53.316;8.670;2024-01-06T14:32:20;22.30;;;11.18;;
46815;SDS011;32787;53.316;8.670;2024-01-06T14:34:48;21.38;;;10.55;;
46815;SDS011;32787;53.316;8.670;2024-01-06T14:37:14;20.48;;;10.73;;